CheckWX is a tool to help pilots better visualize weather data.  It is not intended as a substitute for an official pre-flight weather briefing.

01:45:21 UTC

EPZG METAR
Zielona Góra-Babimost Airport
Babimost, Poland
Current

6 hours ago

EPZG 192000Z VRB01KT 4000 BR NSC 17/16 Q1019
Observed
Aug-19 @ 20:00 UTC
Wind
  • Variable at 1 KTS
Visibility
4,000 meters
Flight Rules
IFR
Conditions
Mist
Cloud Levels
  • Clear skies
Temperature
17°C / 63°F
Dewpoint
16°C / 61°F
Humidity
94%
Altimeter
30.09" Hg
Pressure
1018.92 hPa
Previous

6 hours ago

EPZG 191930Z VRB01KT 5000 BR NSC 18/17 Q1019
Observed
Aug-19 @ 19:30 UTC
Wind
  • Variable at 1 KTS
Visibility
5,000 meters
Flight Rules
MVFR
Conditions
Mist
Cloud Levels
  • Clear skies
Temperature
18°C / 64°F
Dewpoint
17°C / 63°F
Humidity
94%
Altimeter
30.09" Hg
Pressure
1018.92 hPa
Previous

7 hours ago

EPZG 191900Z VRB02KT CAVOK 19/17 Q1019
Observed
Aug-19 @ 19:00 UTC
Wind
  • Variable at 2 KTS
Visibility
10,000+ meters
Flight Rules
VFR
Cloud Levels
  • Clear skies
Temperature
19°C / 66°F
Dewpoint
17°C / 63°F
Humidity
88%
Altimeter
30.09" Hg
Pressure
1018.92 hPa